Terminal Aerodrome Forecast
Issued by NWS

Home | Current Version | Previous Version | Text Only | Print | Product List | Glossary On
Versions: 1 2 3 4 5 6 7 8 9 10 11 12
000
FTUS42 KMLB 292334
TAFLEE
TAF
KLEE 292334Z 3000/3024 29010KT P6SM OVC035
      TEMPO 3000/3002 VRB15G28KT 3SM TSRA BKN020CB
     FM300400 11004KT P6SM SCT020 BKN150 OVC250
     FM301300 13009KT P6SM SCT020 BKN035 OVC060
      TEMPO 3016/3018 2SM +TSRA BKN020CB
     FM301800 09010KT P6SM VCTS BKN030CB OVC100=

USA.gov is the U.S. government's official web portal to all federal, state and local government web resources and services.